Time;durP1;ratioP1;P1;durP2;ratioP2;P2;SDS_P1;SDS_P2;PMS_P1;PMS_P2;Temp;Humidity;BMP_temperature;BMP_pressure;BME280_temperature;BME280_humidity;BME280_pressure;Samples;Min_cycle;Max_cycle;Signal;HPM_P1;HPM_P2
2021/11/15 00:00:29;;;;;;;60.08;40.63;;;;;;;6.03;77.63;100866.78;1756847;80;22010;-60
2021/11/15 00:02:57;;;;;;;;;;;;;;;6.01;77.78;100865.92;1761226;80;21604;-60
2021/11/15 00:05:23;;;;;;;63.80;40.05;;;;;;;5.96;77.99;100867.23;1735383;80;20440;-61
2021/11/15 00:07:52;;;;;;;60.78;38.23;;;;;;;5.91;77.96;100866.34;1757975;79;21483;-60
2021/11/15 00:10:19;;;;;;;61.00;38.70;;;;;;;5.94;77.95;100853.73;1754977;80;20955;-59
2021/11/15 00:12:52;;;;;;;52.98;37.10;;;;;;;6.02;77.87;100853.28;1754861;80;21572;-60
2021/11/15 00:15:20;;;;;;;59.23;39.20;;;;;;;6.01;77.81;100855.48;1750593;80;21544;-59
2021/11/15 00:17:49;;;;;;;58.00;41.48;;;;;;;5.98;77.90;100853.73;1750504;80;21609;-59
2021/11/15 00:20:16;;;;;;;61.13;42.77;;;;;;;5.95;77.98;100858.98;1742452;81;21637;-59
2021/11/15 00:22:43;;;;;;;;;;;;;;;5.89;78.00;100856.34;1748181;81;21534;-60
2021/11/15 00:25:12;;;;;;;57.83;39.55;;;;;;;5.87;78.26;100855.48;1750720;81;20897;-59
2021/11/15 00:27:39;;;;;;;67.72;42.23;;;;;;;5.96;78.25;100863.31;1752953;80;26230;-59
2021/11/15 00:31:22;;;;;;;65.17;41.40;;;;;;;6.02;78.25;100858.05;1797092;79;22878;-60
2021/11/15 00:33:52;;;;;;;60.15;41.70;;;;;;;5.94;78.18;100858.50;1757621;80;21449;-61
2021/11/15 00:36:19;;;;;;;66.87;42.67;;;;;;;5.90;78.03;100855.48;1773730;80;22191;-60
2021/11/15 00:38:46;;;;;;;59.38;39.85;;;;;;;5.80;78.21;100857.27;1764006;80;21005;-60
2021/11/15 00:41:13;;;;;;;58.65;39.95;;;;;;;5.79;78.38;100859.43;1759762;80;21549;-60
2021/11/15 00:43:40;;;;;;;63.28;40.55;;;;;;;5.85;78.43;100867.67;1763451;80;20994;-61
2021/11/15 00:46:06;;;;;;;59.90;42.05;;;;;;;5.87;78.53;100871.14;1769607;79;20997;-60
2021/11/15 00:48:33;;;;;;;63.15;43.52;;;;;;;5.83;78.46;100862.45;1766161;80;21898;-61
2021/11/15 00:51:00;;;;;;;68.67;42.25;;;;;;;5.81;78.66;100859.43;1756499;79;20962;-61
2021/11/15 00:53:29;;;;;;;56.88;39.65;;;;;;;5.77;78.65;100865.09;1759594;80;21482;-61
2021/11/15 00:55:56;;;;;;;59.13;39.48;;;;;;;5.79;78.74;100865.95;1720048;81;21439;-61
2021/11/15 00:58:23;;;;;;;58.95;40.40;;;;;;;5.91;78.57;100861.56;1712352;83;21546;-61
2021/11/15 01:00:49;;;;;;;61.90;43.23;;;;;;;5.94;78.42;100845.90;1696976;83;21780;-61
2021/11/15 01:03:16;;;;;;;62.80;42.73;;;;;;;5.92;78.31;100845.90;1697294;83;21053;-60
2021/11/15 01:05:48;;;;;;;;;;;;;;;5.85;78.26;100852.88;1700796;83;21033;-61
2021/11/15 01:08:12;;;;;;;61.20;39.98;;;;;;;5.79;78.58;100859.43;1724170;81;20411;-61
2021/11/15 01:10:39;;;;;;;70.80;43.30;;;;;;;5.75;78.58;100864.23;1734942;81;21506;-61
2021/11/15 01:13:05;;;;;;;67.90;43.35;;;;;;;5.73;78.61;100858.61;1741039;81;21823;-60
2021/11/15 01:15:34;;;;;;;61.13;43.13;;;;;;;5.79;78.63;100859.88;1728973;81;21487;-61
2021/11/15 01:18:01;;;;;;;65.15;43.15;;;;;;;5.75;78.68;100864.69;1711190;82;21478;-61
2021/11/15 01:20:30;;;;;;;69.67;43.87;;;;;;;5.63;78.96;100863.84;1707307;82;20966;-60
2021/11/15 01:22:57;;;;;;;61.70;40.30;;;;;;;5.58;79.24;100867.34;1710959;82;21580;-61
2021/11/15 01:25:24;;;;;;;61.88;42.65;;;;;;;5.49;79.37;100866.92;1702689;82;22093;-60
2021/11/15 01:27:50;;;;;;;58.15;40.63;;;;;;;5.51;79.63;100869.09;1709957;82;20982;-59
2021/11/15 01:30:19;;;;;;;60.98;40.95;;;;;;;5.56;79.60;100871.25;1711736;81;21522;-59
2021/11/15 01:32:46;;;;;;;67.50;45.43;;;;;;;5.50;79.75;100878.22;1758009;80;21033;-58
2021/11/15 01:35:12;;;;;;;66.97;46.23;;;;;;;5.43;80.02;100890.42;1752733;80;21530;-59
2021/11/15 01:37:39;;;;;;;69.85;45.15;;;;;;;5.37;80.25;100900.84;1751423;80;21826;-59
2021/11/15 01:40:07;;;;;;;68.47;41.88;;;;;;;5.29;80.37;100893.47;1756117;80;21498;-58
2021/11/15 01:42:34;;;;;;;63.02;43.35;;;;;;;5.32;80.57;100894.78;1745713;80;20942;-59
2021/11/15 01:45:01;;;;;;;66.82;45.00;;;;;;;5.41;80.57;100886.95;1750716;80;21467;-60
2021/11/15 01:47:28;;;;;;;68.60;44.93;;;;;;;5.45;80.68;100897.80;1757143;80;21423;-58
2021/11/15 01:49:55;;;;;;;69.17;45.65;;;;;;;5.40;80.68;100899.55;1753493;80;21621;-59
2021/11/15 01:52:22;;;;;;;72.12;46.68;;;;;;;5.39;80.83;100897.83;1706983;82;21440;-59
2021/11/15 01:54:48;;;;;;;72.13;44.37;;;;;;;5.32;80.82;100900.86;1751687;80;21416;-59
2021/11/15 01:57:15;;;;;;;65.00;44.13;;;;;;;5.36;81.01;100894.77;1751354;80;20991;-59
2021/11/15 01:59:41;;;;;;;65.05;43.92;;;;;;;5.51;80.91;100892.56;1747799;80;21446;-59
2021/11/15 02:02:08;;;;;;;66.75;45.15;;;;;;;5.60;80.63;100890.38;1706707;82;22023;-59
2021/11/15 02:04:34;;;;;;;69.32;46.25;;;;;;;5.59;80.42;100889.94;1749970;80;20938;-60
2021/11/15 02:07:01;;;;;;;68.37;45.80;;;;;;;5.59;80.47;100889.48;1758649;80;21475;-58
2021/11/15 02:09:29;;;;;;;70.45;45.03;;;;;;;5.60;80.20;100891.69;1749424;80;21041;-59
2021/11/15 02:11:57;;;;;;;66.62;43.38;;;;;;;5.64;80.10;100893.41;1715969;82;21535;-58
2021/11/15 02:14:24;;;;;;;65.85;45.23;;;;;;;5.74;79.98;100896.41;1754839;80;22090;-59
2021/11/15 02:16:51;;;;;;;65.55;44.20;;;;;;;5.78;79.79;100889.03;1753883;80;20947;-58
2021/11/15 02:19:18;;;;;;;69.75;45.33;;;;;;;5.75;79.73;100893.39;1754738;80;21491;-60
2021/11/15 02:21:45;;;;;;;68.47;45.88;;;;;;;5.73;79.62;100895.14;1737995;80;27155;-58
2021/11/15 02:24:12;;;;;;;65.05;44.05;;;;;;;5.70;79.65;100887.31;1753662;80;21430;-58
2021/11/15 02:26:39;;;;;;;65.75;43.52;;;;;;;5.72;79.55;100886.86;1746940;80;21795;-58
2021/11/15 02:29:08;;;;;;;63.60;42.00;;;;;;;5.81;79.35;100886.39;1754613;80;21503;-58
2021/11/15 02:31:35;;;;;;;64.10;44.38;;;;;;;5.85;79.28;100886.80;1756264;80;21049;-58
2021/11/15 02:34:01;;;;;;;60.83;42.67;;;;;;;5.83;79.32;100883.78;1763322;80;21535;-58
2021/11/15 02:36:29;;;;;;;68.85;46.45;;;;;;;5.81;79.27;100892.06;1757091;80;21620;-58
2021/11/15 02:38:56;;;;;;;67.85;44.53;;;;;;;5.80;79.22;100887.28;1762676;80;21779;-59
2021/11/15 02:41:22;;;;;;;69.87;44.85;;;;;;;5.79;79.06;100894.67;1760184;80;21411;-59
2021/11/15 02:43:50;;;;;;;66.97;45.57;;;;;;;5.88;78.95;100908.14;1766992;80;21597;-59
2021/11/15 02:46:16;;;;;;;71.67;46.33;;;;;;;5.92;78.94;100912.91;1756446;80;21485;-59
2021/11/15 02:48:44;;;;;;;69.22;45.00;;;;;;;5.88;78.96;100914.66;1760946;80;21033;-60
2021/11/15 02:51:10;;;;;;;66.47;46.05;;;;;;;5.87;79.09;100923.80;1761535;80;21817;-59
2021/11/15 02:53:37;;;;;;;70.30;45.08;;;;;;;5.85;79.11;100934.23;1764024;80;20939;-59
2021/11/15 02:56:05;;;;;;;66.72;45.05;;;;;;;5.87;79.13;100937.70;1754950;80;21045;-59
2021/11/15 02:58:31;;;;;;;67.67;45.40;;;;;;;5.95;78.98;100936.38;1755350;80;21534;-59
2021/11/15 03:01:06;;;;;;;72.25;46.85;;;;;;;5.89;78.82;100939.02;1726591;82;21467;-59
2021/11/15 03:03:33;;;;;;;69.47;45.92;;;;;;;5.76;79.09;100946.00;1758310;80;21804;-60
2021/11/15 03:06:00;;;;;;;64.65;44.45;;;;;;;5.65;79.43;100948.21;1756301;80;21423;-60
2021/11/15 03:08:26;;;;;;;64.25;44.45;;;;;;;5.60;79.60;100947.78;1760904;80;20990;-60
2021/11/15 03:11:00;;;;;;;68.50;43.83;;;;;;;5.62;79.72;100946.04;1727165;82;21049;-60
2021/11/15 03:13:34;;;;;;;69.60;44.53;;;;;;;5.70;79.68;100948.63;1761437;80;21482;-60
2021/11/15 03:16:01;;;;;;;65.72;43.92;;;;;;;5.72;79.78;100952.11;1755863;80;21890;-60
2021/11/15 03:18:31;;;;;;;66.72;44.48;;;;;;;5.70;79.82;100950.80;1758803;80;20986;-60
2021/11/15 03:21:03;;;;;;;72.20;46.70;;;;;;;5.72;79.75;100956.02;1716636;82;20998;-60
2021/11/15 03:23:33;;;;;;;72.45;45.20;;;;;;;5.70;79.61;100949.49;1761154;80;21451;-60
2021/11/15 03:25:59;;;;;;;67.53;43.87;;;;;;;5.72;79.55;100942.53;1766849;80;21463;-60
2021/11/15 03:28:33;;;;;;;68.67;43.23;;;;;;;5.80;79.44;100947.31;1731565;80;21896;-60
2021/11/15 03:31:10;;;;;;;68.70;44.48;;;;;;;5.83;79.44;100951.20;1758585;80;20910;-60
2021/11/15 03:33:38;;;;;;;;;;;;;;;5.83;79.40;100951.65;1758363;80;21443;-60
2021/11/15 03:36:05;;;;;;;72.58;44.65;;;;;;;5.79;79.36;100946.01;1771530;80;20476;-59
2021/11/15 03:38:32;;;;;;;70.97;43.67;;;;;;;5.72;79.47;100954.27;1761395;80;21431;-59
2021/11/15 03:40:59;;;;;;;64.75;42.90;;;;;;;5.72;79.62;100955.58;1766221;80;21793;-59
2021/11/15 03:43:26;;;;;;;69.07;45.65;;;;;;;5.83;79.43;100946.42;1759390;80;21506;-59
2021/11/15 03:45:53;;;;;;;70.35;45.25;;;;;;;5.87;79.37;100949.90;1752669;80;21525;-59
2021/11/15 03:48:21;;;;;;;67.85;45.60;;;;;;;5.87;79.36;100953.81;1723911;82;21424;-59
2021/11/15 03:50:47;;;;;;;70.40;45.17;;;;;;;5.83;79.42;100951.20;1753904;80;21430;-60
2021/11/15 03:53:16;;;;;;;69.67;43.90;;;;;;;5.82;79.42;100959.92;1740334;80;22096;-59
2021/11/15 03:55:42;;;;;;;64.97;45.40;;;;;;;5.84;79.43;100966.00;1747676;80;21478;-62
2021/11/15 03:58:10;;;;;;;72.20;45.05;;;;;;;5.93;79.30;100970.76;1763028;80;21431;-59
2021/11/15 04:00:40;;;;;;;73.92;47.65;;;;;;;5.94;79.27;100977.73;1763091;80;21542;-60
2021/11/15 04:03:15;;;;;;;66.95;44.93;;;;;;;5.90;79.33;100972.09;1764621;80;21610;-61
2021/11/15 04:05:39;;;;;;;65.17;44.73;;;;;;;5.81;79.31;100978.19;1717473;82;22031;-59
2021/11/15 04:08:08;;;;;;;60.10;41.33;;;;;;;5.74;79.29;100981.67;1755460;80;26028;-59
2021/11/15 04:10:38;;;;;;;60.10;40.80;;;;;;;5.70;79.54;100986.47;1765770;80;21489;-59
2021/11/15 04:13:09;;;;;;;61.18;42.53;;;;;;;5.79;79.53;100994.30;1748024;80;21100;-59
2021/11/15 04:15:37;;;;;;;65.83;43.83;;;;;;;5.78;79.48;100994.73;1752353;80;21087;-60
2021/11/15 04:18:04;;;;;;;68.60;46.60;;;;;;;5.71;79.59;100998.22;1761656;80;21780;-60
2021/11/15 04:20:31;;;;;;;68.47;45.80;;;;;;;5.61;79.74;101002.59;1756540;80;21454;-60
2021/11/15 04:22:58;;;;;;;65.10;43.87;;;;;;;5.52;80.06;101007.80;1724058;82;21435;-60
2021/11/15 04:25:25;;;;;;;70.17;45.10;;;;;;;5.51;80.40;101009.11;1755708;80;21578;-59
2021/11/15 04:27:52;;;;;;;72.42;45.35;;;;;;;5.57;80.37;101009.09;1757062;80;21423;-60
2021/11/15 04:30:18;;;;;;;70.10;47.25;;;;;;;5.61;80.49;101013.44;1769165;80;21772;-59
2021/11/15 04:32:45;;;;;;;66.12;44.55;;;;;;;5.58;80.57;101022.59;1748469;80;21497;-60
2021/11/15 04:35:16;;;;;;;68.60;46.53;;;;;;;5.56;80.53;101025.63;1757253;80;21506;-60
2021/11/15 04:37:43;;;;;;;70.22;45.03;;;;;;;5.52;80.51;101029.09;1771049;80;21124;-61
2021/11/15 04:40:11;;;;;;;71.25;45.88;;;;;;;5.49;80.67;101029.11;1750170;80;21530;-60
2021/11/15 04:42:37;;;;;;;69.67;44.33;;;;;;;5.53;80.71;101026.93;1720875;82;21766;-60
2021/11/15 04:45:05;;;;;;;70.25;46.23;;;;;;;5.57;80.65;101026.05;1759934;80;21032;-59
2021/11/15 04:47:33;;;;;;;69.05;46.92;;;;;;;5.54;80.74;101029.95;1754746;80;21584;-61
2021/11/15 04:50:01;;;;;;;75.35;46.73;;;;;;;5.49;80.69;101031.72;1723643;82;20939;-60
2021/11/15 04:52:27;;;;;;;72.15;46.23;;;;;;;5.45;80.69;101034.76;1752491;80;21653;-60
2021/11/15 04:54:54;;;;;;;65.90;43.90;;;;;;;5.50;80.75;101034.74;1752165;80;21791;-60
2021/11/15 04:57:22;;;;;;;64.97;44.25;;;;;;;5.60;80.50;101040.41;1770527;80;20978;-60
2021/11/15 04:59:49;;;;;;;67.15;44.73;;;;;;;5.62;80.47;101038.67;1754376;80;21481;-60
2021/11/15 05:02:15;;;;;;;65.20;44.75;;;;;;;5.61;80.41;101045.64;1749067;80;21568;-61
2021/11/15 05:04:42;;;;;;;67.87;44.98;;;;;;;5.61;80.30;101048.66;1754297;80;21147;-60
2021/11/15 05:07:09;;;;;;;61.92;42.05;;;;;;;5.60;80.25;101053.02;1764733;80;21998;-61
2021/11/15 05:09:36;;;;;;;69.25;41.73;;;;;;;5.63;80.10;101053.03;1756702;80;21522;-60
2021/11/15 05:12:04;;;;;;;69.33;42.43;;;;;;;5.71;80.12;101053.02;1729448;82;21104;-60
2021/11/15 05:14:31;;;;;;;71.82;42.80;;;;;;;5.75;79.89;101053.89;1764662;80;21537;-60
2021/11/15 05:16:58;;;;;;;74.60;45.17;;;;;;;5.70;79.86;101060.84;1750025;80;21447;-60
2021/11/15 05:19:25;;;;;;;71.70;44.20;;;;;;;5.69;79.91;101066.52;1755295;80;22053;-60
2021/11/15 05:21:52;;;;;;;69.80;42.80;;;;;;;5.70;79.80;101069.98;1729952;82;21419;-60
2021/11/15 05:24:18;;;;;;;68.20;42.45;;;;;;;5.69;79.66;101069.12;1771470;80;20973;-62
2021/11/15 05:26:46;;;;;;;66.57;42.45;;;;;;;5.77;79.74;101081.73;1758050;80;21679;-61
2021/11/15 05:29:13;;;;;;;68.42;43.08;;;;;;;5.82;79.63;101081.30;1764983;80;21418;-60
2021/11/15 05:31:40;;;;;;;66.42;43.10;;;;;;;5.84;79.46;101085.22;1723075;82;21790;-60
2021/11/15 05:34:07;;;;;;;74.05;46.02;;;;;;;5.84;79.38;101090.44;1706343;83;21522;-62
2021/11/15 05:36:33;;;;;;;70.60;43.33;;;;;;;5.80;79.30;101098.70;1700652;83;21449;-61
2021/11/15 05:39:03;;;;;;;68.12;43.73;;;;;;;5.81;79.19;101097.81;1702139;83;21459;-61
2021/11/15 05:41:29;;;;;;;67.08;43.33;;;;;;;5.87;79.18;101103.47;1698299;83;20994;-61
2021/11/15 05:43:56;;;;;;;65.30;42.48;;;;;;;5.90;79.03;101111.31;1706167;83;21731;-61
2021/11/15 05:46:22;;;;;;;63.83;42.58;;;;;;;5.87;78.94;101115.66;1723356;82;21463;-61
2021/11/15 05:48:49;;;;;;;66.97;43.92;;;;;;;5.80;78.89;101124.80;1699855;83;21491;-61
2021/11/15 05:51:16;;;;;;;62.08;40.38;;;;;;;5.77;79.04;101125.23;1700227;83;21668;-61
2021/11/15 05:53:46;;;;;;;64.10;40.63;;;;;;;5.76;79.16;101116.51;1708840;83;21461;-61
2021/11/15 05:56:11;;;;;;;60.43;39.13;;;;;;;5.82;78.95;101124.37;1696471;83;21419;-60
2021/11/15 05:58:39;;;;;;;58.48;40.10;;;;;;;5.86;78.81;101122.63;1714228;82;26992;-60
2021/11/15 06:01:06;;;;;;;62.00;39.13;;;;;;;5.83;78.62;101126.53;1723037;82;21562;-61
2021/11/15 06:03:32;;;;;;;56.20;39.23;;;;;;;5.77;78.64;101139.14;1727848;82;21451;-60
2021/11/15 06:05:59;;;;;;;60.70;39.08;;;;;;;5.74;78.88;101138.27;1727912;82;21644;-60
2021/11/15 06:08:26;;;;;;;54.58;37.35;;;;;;;5.76;78.66;101136.53;1703065;83;21823;-61
2021/11/15 06:10:53;;;;;;;58.92;38.15;;;;;;;5.81;78.67;101138.27;1731603;82;21447;-61
2021/11/15 06:13:20;;;;;;;56.60;40.10;;;;;;;5.83;78.59;101131.75;1719833;82;21601;-60
2021/11/15 06:15:49;;;;;;;62.73;39.27;;;;;;;5.80;78.59;101141.77;1719166;82;21549;-61
2021/11/15 06:18:16;;;;;;;58.60;38.75;;;;;;;5.78;78.52;101145.23;1726642;82;21470;-60
2021/11/15 06:20:44;;;;;;;53.65;36.85;;;;;;;5.74;78.46;101146.95;1718954;82;21423;-61
2021/11/15 06:23:10;;;;;;;57.73;37.30;;;;;;;5.75;78.48;101149.16;1722429;82;21479;-61
2021/11/15 06:25:37;;;;;;;54.23;37.33;;;;;;;5.85;78.42;101149.59;1731442;82;20978;-60
2021/11/15 06:28:04;;;;;;;55.35;36.45;;;;;;;5.91;78.22;101147.41;1729055;82;22076;-57
2021/11/15 06:30:31;;;;;;;59.00;37.45;;;;;;;5.88;78.14;101150.91;1737777;82;21521;-57
2021/11/15 06:32:58;;;;;;;57.80;37.95;;;;;;;5.81;78.15;101153.94;1735515;81;22033;-58
2021/11/15 06:35:29;;;;;;;58.05;36.42;;;;;;;5.81;78.30;101160.91;1728341;81;21517;-57
2021/11/15 06:37:56;;;;;;;55.17;36.23;;;;;;;5.83;78.04;101161.33;1729686;81;21060;-56
2021/11/15 06:40:23;;;;;;;54.90;36.33;;;;;;;5.86;77.93;101161.78;1705619;82;21538;-58
2021/11/15 06:42:50;;;;;;;54.50;36.03;;;;;;;5.98;77.68;101172.25;1731954;81;20998;-56
2021/11/15 06:45:17;;;;;;;53.83;36.42;;;;;;;5.98;77.41;101167.03;1724919;82;21891;-58
2021/11/15 06:47:44;;;;;;;61.02;37.03;;;;;;;5.90;77.56;101166.58;1687913;83;21515;-57
2021/11/15 06:50:14;;;;;;;54.08;36.77;;;;;;;5.89;77.64;101170.05;1711293;82;21714;-57
2021/11/15 06:52:41;;;;;;;57.13;37.73;;;;;;;5.86;77.49;101176.14;1733575;81;21576;-56
2021/11/15 06:55:09;;;;;;;49.25;34.20;;;;;;;5.80;77.37;101176.11;1717112;82;21575;-56
2021/11/15 06:57:37;;;;;;;50.30;32.73;;;;;;;5.78;77.59;101171.33;1716621;82;21523;-56
2021/11/15 07:00:06;;;;;;;;;;;;;;;5.91;77.60;101173.08;1710184;81;21571;-56
2021/11/15 07:02:33;;;;;;;50.12;33.85;;;;;;;5.96;77.35;101175.74;1715206;82;20447;-56
2021/11/15 07:05:00;;;;;;;55.30;35.60;;;;;;;5.90;77.47;101188.33;1692897;83;21469;-55
2021/11/15 07:07:26;;;;;;;54.33;36.63;;;;;;;5.86;77.46;101186.59;1705112;82;21608;-56
2021/11/15 07:09:53;;;;;;;51.85;35.05;;;;;;;5.85;77.46;101183.08;1713702;81;22351;-55
2021/11/15 07:12:20;;;;;;;48.90;33.38;;;;;;;5.82;77.38;101187.42;1710571;83;21450;-56
2021/11/15 07:14:46;;;;;;;49.25;33.98;;;;;;;5.84;77.23;101198.33;1698512;83;21033;-56
2021/11/15 07:17:13;;;;;;;53.58;33.78;;;;;;;5.93;77.19;101199.19;1698057;83;21001;-55
2021/11/15 07:19:40;;;;;;;46.25;34.60;;;;;;;5.96;77.05;101207.94;1705159;83;21530;-56
2021/11/15 07:22:07;;;;;;;51.55;34.38;;;;;;;5.97;77.04;101211.00;1713202;83;21790;-56
2021/11/15 07:24:33;;;;;;;51.42;34.98;;;;;;;6.02;76.96;101209.23;1700349;83;21459;-55
2021/11/15 07:27:00;;;;;;;52.93;33.75;;;;;;;6.03;76.65;101216.66;1694748;83;20998;-56
2021/11/15 07:29:26;;;;;;;49.67;33.13;;;;;;;6.03;76.56;101217.97;1703497;83;21686;-55
2021/11/15 07:31:53;;;;;;;50.30;33.73;;;;;;;6.13;76.34;101215.78;1702875;82;21570;-56
2021/11/15 07:34:21;;;;;;;48.75;34.30;;;;;;;6.16;76.16;101221.02;1694645;83;21474;-56
2021/11/15 07:36:47;;;;;;;49.53;32.80;;;;;;;6.13;75.97;101223.62;1692607;83;21491;-55
2021/11/15 07:39:14;;;;;;;51.40;34.13;;;;;;;6.12;75.98;101230.14;1696729;83;21101;-56
2021/11/15 07:41:41;;;;;;;46.05;34.98;;;;;;;6.06;75.66;101232.75;1695621;83;21519;-59
2021/11/15 07:44:07;;;;;;;52.73;32.88;;;;;;;6.00;76.00;101224.48;1693657;83;21526;-58
2021/11/15 07:46:34;;;;;;;48.58;32.33;;;;;;;6.01;75.70;101227.09;1697511;83;21677;-55
2021/11/15 07:49:01;;;;;;;44.05;31.25;;;;;;;6.12;75.71;101236.67;1696431;83;21050;-55
2021/11/15 07:51:27;;;;;;;43.02;31.35;;;;;;;6.30;75.54;101242.36;1693738;83;21069;-55
2021/11/15 07:53:54;;;;;;;40.95;31.85;;;;;;;6.34;74.98;101241.03;1750644;80;21537;-56
2021/11/15 07:56:21;;;;;;;49.00;33.05;;;;;;;6.35;74.98;101241.93;1739659;80;21424;-55
2021/11/15 07:58:48;;;;;;;42.38;31.52;;;;;;;6.35;74.61;101242.80;1718864;82;21779;-56
2021/11/15 08:01:15;;;;;;;44.38;31.02;;;;;;;6.33;74.44;101250.17;1750645;80;21558;-56
2021/11/15 08:03:42;;;;;;;53.07;33.13;;;;;;;6.30;74.23;101244.97;1753253;80;21434;-56
2021/11/15 08:06:10;;;;;;;45.10;30.33;;;;;;;6.28;73.98;101251.49;1750702;80;21541;-56
2021/11/15 08:08:38;;;;;;;43.45;28.98;;;;;;;6.27;73.81;101243.20;1758226;80;21459;-56
2021/11/15 08:11:07;;;;;;;43.50;29.95;;;;;;;6.38;73.65;101247.13;1759184;80;21522;-57
2021/11/15 08:13:34;;;;;;;43.42;29.75;;;;;;;6.43;73.30;101254.10;1706736;82;21379;-56
2021/11/15 08:16:01;;;;;;;43.45;31.95;;;;;;;6.42;73.22;101254.09;1746292;80;21548;-56
2021/11/15 08:18:29;;;;;;;45.88;30.97;;;;;;;6.45;73.16;101257.16;1750968;80;21029;-56
2021/11/15 08:20:56;;;;;;;45.65;31.52;;;;;;;6.45;72.67;101264.56;1752549;80;21462;-56
2021/11/15 08:23:22;;;;;;;41.68;29.07;;;;;;;6.43;72.66;101259.77;1744841;80;21760;-57
2021/11/15 08:26:28;;;;;;;44.40;29.37;;;;;;;6.43;72.37;101265.86;1743624;80;21569;-56
2021/11/15 08:29:09;;;;;;;35.43;26.37;;;;;;;6.46;72.29;101267.63;1743112;80;21501;-57
2021/11/15 08:31:37;;;;;;;38.75;28.07;;;;;;;6.59;71.88;101262.83;1744993;80;21522;-57
2021/11/15 08:34:04;;;;;;;39.75;28.47;;;;;;;6.68;71.69;101269.77;1749722;80;21581;-56
2021/11/15 08:36:31;;;;;;;39.65;28.62;;;;;;;6.75;71.12;101275.88;1727500;82;22049;-56
2021/11/15 08:39:03;;;;;;;34.83;27.75;;;;;;;6.80;70.94;101279.37;1762942;80;21465;-56
2021/11/15 08:41:34;;;;;;;37.23;27.60;;;;;;;6.83;70.65;101271.50;1749981;80;20939;-56
2021/11/15 08:44:05;;;;;;;35.50;26.73;;;;;;;6.91;70.10;101276.30;1759710;80;21486;-56
2021/11/15 08:46:32;;;;;;;35.73;25.25;;;;;;;6.94;69.80;101277.58;1761111;80;21422;-56
2021/11/15 08:49:01;;;;;;;38.95;27.73;;;;;;;6.97;69.01;101275.42;1768323;80;21787;-56
2021/11/15 08:51:28;;;;;;;35.33;26.65;;;;;;;6.97;68.80;101280.20;1754026;80;21490;-56
2021/11/15 08:53:56;;;;;;;36.20;25.95;;;;;;;7.01;68.65;101286.30;1753073;80;21001;-56
2021/11/15 08:56:23;;;;;;;39.65;25.70;;;;;;;7.05;68.07;101293.27;1751677;80;21474;-56
2021/11/15 08:58:50;;;;;;;34.98;25.62;;;;;;;7.07;68.12;101291.95;1723719;80;21427;-56
2021/11/15 09:01:17;;;;;;;35.00;26.13;;;;;;;7.16;67.84;101288.88;1769227;80;21799;-55
2021/11/15 09:03:46;;;;;;;36.58;25.27;;;;;;;7.16;67.65;101290.19;1767567;80;21569;-57
2021/11/15 09:06:14;;;;;;;37.42;25.27;;;;;;;7.18;67.57;101287.57;1761494;80;21492;-56
2021/11/15 09:08:42;;;;;;;32.93;25.37;;;;;;;7.24;67.12;101286.69;1761157;80;21006;-56
2021/11/15 09:11:10;;;;;;;36.33;25.85;;;;;;;7.32;66.93;101287.52;1764706;80;21823;-57
2021/11/15 09:13:38;;;;;;;37.08;26.35;;;;;;;7.38;66.77;101283.56;1762514;80;21767;-57
2021/11/15 09:16:05;;;;;;;36.55;25.70;;;;;;;7.39;66.26;101286.19;1751079;80;21632;-57
2021/11/15 09:18:34;;;;;;;39.13;26.40;;;;;;;7.44;66.24;101283.56;1760675;80;26771;-56
2021/11/15 09:21:01;;;;;;;36.10;25.40;;;;;;;7.53;64.96;101288.73;1717956;82;21580;-57
2021/11/15 09:23:28;;;;;;;;;;;;;;;7.55;65.47;101287.02;1763913;80;21510;-56
2021/11/15 09:25:55;;;;;;;33.67;23.85;;;;;;;7.62;64.79;101285.67;1752447;80;21740;-57
2021/11/15 09:28:21;;;;;;;38.23;25.62;;;;;;;7.73;65.48;101290.42;1758639;80;21410;-56
2021/11/15 09:30:48;;;;;;;34.75;25.77;;;;;;;7.96;64.00;101272.81;1718170;82;21403;-57
2021/11/15 09:33:15;;;;;;;36.10;25.23;;;;;;;8.35;63.55;101281.75;1751266;80;21542;-57
2021/11/15 09:35:48;;;;;;;34.00;25.00;;;;;;;8.72;62.93;101277.52;1750849;80;21553;-57
2021/11/15 09:38:11;;;;;;;32.65;25.12;;;;;;;9.13;61.73;101278.42;1755468;80;21760;-56
2021/11/15 09:40:38;;;;;;;34.43;24.60;;;;;;;9.50;60.35;101272.75;1752392;80;22635;-57
2021/11/15 09:43:05;;;;;;;34.25;25.23;;;;;;;9.73;59.78;101272.45;1718490;82;21097;-58
2021/11/15 09:45:32;;;;;;;32.53;25.23;;;;;;;10.05;58.08;101277.70;1710981;82;21427;-57
2021/11/15 09:48:00;;;;;;;36.25;24.87;;;;;;;10.20;58.36;101277.06;1696732;83;21416;-58
2021/11/15 09:50:28;;;;;;;31.93;23.35;;;;;;;10.41;58.04;101288.58;1688730;83;21487;-57
2021/11/15 09:52:54;;;;;;;31.42;24.80;;;;;;;10.32;57.48;101276.47;1749685;80;21553;-57
2021/11/15 09:55:21;;;;;;;36.88;25.80;;;;;;;10.17;57.66;101281.94;1741542;80;21485;-58
2021/11/15 09:57:49;;;;;;;34.50;23.87;;;;;;;10.44;57.15;101284.59;1747749;80;20971;-57
2021/11/15 10:00:20;;;;;;;33.00;24.43;;;;;;;10.75;56.01;101285.39;1754364;80;21399;-57
2021/11/15 10:02:48;;;;;;;30.65;25.17;;;;;;;11.04;54.77;101294.09;1748919;80;21824;-59
2021/11/15 10:05:15;;;;;;;35.78;26.87;;;;;;;11.02;53.73;101293.25;1755402;80;21553;-59
2021/11/15 10:07:57;;;;;;;33.92;26.95;;;;;;;10.93;54.28;101288.16;1746463;80;21684;-57
2021/11/15 10:10:37;;;;;;;32.23;26.20;;;;;;;10.74;54.15;101287.61;1748980;80;21571;-58
2021/11/15 10:13:25;;;;;;;30.25;25.00;;;;;;;10.25;54.22;101293.64;1710372;82;21117;-58
2021/11/15 10:16:01;;;;;;;35.03;26.15;;;;;;;9.99;54.80;101300.14;1753266;80;22188;-59
2021/11/15 10:18:46;;;;;;;35.47;26.57;;;;;;;9.82;55.07;101304.30;1749877;80;21478;-58
2021/11/15 10:21:36;;;;;;;38.35;26.62;;;;;;;9.71;55.40;101306.20;1708595;82;21688;-57
2021/11/15 10:24:33;;;;;;;38.08;27.55;;;;;;;9.72;55.54;101310.12;1753724;80;21519;-56
2021/11/15 10:27:17;;;;;;;38.70;26.40;;;;;;;9.73;55.43;101310.53;1748750;80;21515;-57
2021/11/15 10:29:47;;;;;;;32.67;26.10;;;;;;;9.60;55.62;101318.14;1759497;80;21782;-57
2021/11/15 10:32:28;;;;;;;32.93;25.85;;;;;;;9.30;56.00;101320.23;1745428;80;21127;-57
2021/11/15 10:34:54;;;;;;;34.07;26.70;;;;;;;9.24;56.65;101320.75;1754450;80;21415;-57
2021/11/15 10:37:32;;;;;;;34.33;25.88;;;;;;;9.10;56.69;101322.22;1732076;80;21510;-58
2021/11/15 10:40:08;;;;;;;36.17;26.50;;;;;;;9.39;56.49;101321.89;1713322;82;21506;-57
2021/11/15 10:42:46;;;;;;;34.50;26.70;;;;;;;9.99;55.38;101322.47;1754048;80;21530;-57
2021/11/15 10:45:19;;;;;;;35.10;26.87;;;;;;;10.03;54.61;101321.53;1744702;80;24479;-56
2021/11/15 10:47:59;;;;;;;36.83;25.70;;;;;;;9.78;54.46;101322.31;1751262;80;21506;-57
2021/11/15 10:50:46;;;;;;;33.70;25.02;;;;;;;9.58;55.19;101330.42;1758073;80;21462;-57
2021/11/15 10:53:36;;;;;;;36.70;26.27;;;;;;;9.40;55.46;101341.13;1684120;83;21491;-57
2021/11/15 10:56:08;;;;;;;34.27;25.95;;;;;;;9.19;55.65;101341.78;1707079;82;22080;-56
2021/11/15 10:58:41;;;;;;;34.05;26.97;;;;;;;8.87;56.48;101348.22;1716048;82;21464;-57
2021/11/15 11:01:07;;;;;;;39.03;27.25;;;;;;;8.69;57.17;101353.61;1682393;83;21586;-56
2021/11/15 11:03:36;;;;;;;37.50;29.48;;;;;;;8.56;57.43;101362.87;1686796;83;21554;-56
2021/11/15 11:06:11;;;;;;;41.15;30.30;;;;;;;8.32;58.00;101368.24;1687029;83;21577;-57
2021/11/15 11:08:42;;;;;;;39.10;30.15;;;;;;;8.13;58.84;101374.03;1685928;83;21882;-57
2021/11/15 11:11:12;;;;;;;45.45;30.20;;;;;;;8.15;59.10;101370.51;1688844;83;21562;-57
2021/11/15 11:13:58;;;;;;;42.03;30.45;;;;;;;8.23;59.03;101373.53;1685675;84;21454;-56
2021/11/15 11:16:47;;;;;;;37.58;28.77;;;;;;;8.20;59.11;101379.67;1688010;83;21451;-56
2021/11/15 11:19:33;;;;;;;42.08;29.75;;;;;;;8.06;59.21;101377.13;1695801;83;21480;-56
2021/11/15 11:22:37;;;;;;;44.27;31.30;;;;;;;7.87;59.25;101384.62;1684870;83;21827;-57
2021/11/15 11:24:47;;;;;;;41.48;30.43;;;;;;;7.62;59.75;101386.45;1691965;82;21472;-56
2021/11/15 11:27:13;;;;;;;37.55;27.42;;;;;;;7.35;60.27;101384.34;1722703;80;21458;-58